createdAt,value
2022-08-03T00:00:26.178Z,739.13
2022-08-03T00:01:26.162Z,739.20
2022-08-03T00:02:26.151Z,739.39
2022-08-03T00:03:26.207Z,739.50
2022-08-03T00:04:33.915Z,739.32
2022-08-03T00:05:26.118Z,739.45
2022-08-03T00:06:26.110Z,739.79
2022-08-03T00:07:26.112Z,740.21
2022-08-03T00:08:26.090Z,740.49
2022-08-03T00:09:26.099Z,740.36
2022-08-03T00:10:26.091Z,740.66
2022-08-03T00:11:26.047Z,740.87
2022-08-03T00:12:26.050Z,741.32
2022-08-03T00:13:26.027Z,741.66
2022-08-03T00:14:26.036Z,741.71
2022-08-03T00:15:26.013Z,741.37
2022-08-03T00:16:26.022Z,741.50
2022-08-03T00:17:25.998Z,741.71
2022-08-03T00:18:25.975Z,741.97
2022-08-03T00:19:25.976Z,742.30
2022-08-03T00:20:26.038Z,742.40
2022-08-03T00:21:25.939Z,742.11
2022-08-03T00:22:25.944Z,742.01
2022-08-03T00:23:29.359Z,741.88
2022-08-03T00:24:25.907Z,742.09
2022-08-03T00:25:25.926Z,742.00
2022-08-03T00:26:25.882Z,741.90
2022-08-03T00:27:25.877Z,742.13
2022-08-03T00:28:25.869Z,742.42
2022-08-03T00:29:25.856Z,742.54
2022-08-03T00:30:26.893Z,742.57
2022-08-03T00:31:44.937Z,742.80
2022-08-03T00:32:25.820Z,742.91
2022-08-03T00:33:25.808Z,743.09
2022-08-03T00:34:36.553Z,742.86
2022-08-03T00:35:37.166Z,742.65
2022-08-03T00:36:25.772Z,742.59
2022-08-03T00:37:41.430Z,742.81
2022-08-03T00:38:25.771Z,742.99
2022-08-03T00:39:25.738Z,743.32
2022-08-03T00:40:25.747Z,743.46
2022-08-03T00:41:25.719Z,743.63
2022-08-03T00:42:28.577Z,743.58
2022-08-03T00:43:25.699Z,743.59
2022-08-03T00:44:25.681Z,743.53
2022-08-03T00:45:25.687Z,743.62
2022-08-03T00:47:34.628Z,744.27
2022-08-03T00:48:35.606Z,743.97
2022-08-03T00:49:35.705Z,744.02
2022-08-03T00:50:35.601Z,744.10
2022-08-03T00:51:35.581Z,744.12
2022-08-03T00:52:35.584Z,744.30
2022-08-03T00:53:35.560Z,744.49
2022-08-03T00:54:35.547Z,744.41
2022-08-03T00:55:35.545Z,744.57
2022-08-03T00:56:35.519Z,744.69
2022-08-03T00:57:35.532Z,744.67
2022-08-03T00:58:35.498Z,744.39
2022-08-03T00:59:35.490Z,744.23
2022-08-03T01:00:35.489Z,744.44
2022-08-03T01:01:35.542Z,744.45
2022-08-03T01:02:35.453Z,744.46
2022-08-03T01:03:35.468Z,744.49
2022-08-03T01:04:35.459Z,744.74
2022-08-03T01:05:35.451Z,744.95
2022-08-03T01:06:35.450Z,745.21
2022-08-03T01:07:35.408Z,745.29
2022-08-03T01:08:35.387Z,745.35
2022-08-03T01:09:35.377Z,745.49
2022-08-03T01:10:35.380Z,745.46
2022-08-03T01:11:35.357Z,745.63
2022-08-03T01:12:35.346Z,745.91
2022-08-03T01:14:02.383Z,746.24
2022-08-03T01:14:35.339Z,746.46
2022-08-03T01:15:35.325Z,746.78
2022-08-03T01:16:36.524Z,746.90
2022-08-03T01:17:35.289Z,746.69
2022-08-03T01:18:35.280Z,746.62
2022-08-03T01:19:35.266Z,746.79
2022-08-03T01:20:35.290Z,746.85
2022-08-03T01:21:35.239Z,746.86
2022-08-03T01:22:35.241Z,747.00
2022-08-03T01:23:35.218Z,746.83
2022-08-03T01:24:35.219Z,747.09
2022-08-03T01:25:35.228Z,747.27
2022-08-03T01:26:35.190Z,747.36
2022-08-03T01:27:35.183Z,747.28
2022-08-03T01:28:35.165Z,747.56
2022-08-03T01:29:35.159Z,747.42
2022-08-03T01:30:35.175Z,747.60
2022-08-03T01:31:35.140Z,747.68
2022-08-03T01:32:59.042Z,747.76
2022-08-03T01:33:35.108Z,747.79
2022-08-03T01:34:35.122Z,747.74
2022-08-03T01:35:38.386Z,747.59
2022-08-03T01:36:35.104Z,747.16
2022-08-03T01:37:35.108Z,746.56
2022-08-03T01:38:35.073Z,746.36
2022-08-03T01:39:35.055Z,746.32
2022-08-03T01:40:35.060Z,746.16
2022-08-03T01:41:35.022Z,745.86
2022-08-03T01:42:35.039Z,745.91
2022-08-03T01:44:26.485Z,745.66
2022-08-03T01:44:34.990Z,745.35
2022-08-03T01:45:34.981Z,745.09
2022-08-03T01:46:34.980Z,744.87
2022-08-03T01:47:34.972Z,744.71
2022-08-03T01:48:34.952Z,744.34
2022-08-03T01:49:35.035Z,744.21
2022-08-03T01:50:34.942Z,744.06
2022-08-03T01:51:57.712Z,743.86
2022-08-03T01:52:34.905Z,743.74
2022-08-03T01:53:34.908Z,743.65
2022-08-03T01:54:34.875Z,743.67
2022-08-03T01:55:34.866Z,743.49
2022-08-03T01:56:34.872Z,743.56
2022-08-03T01:57:34.888Z,743.53
2022-08-03T01:58:34.860Z,743.77
2022-08-03T01:59:34.824Z,743.96
2022-08-03T02:00:34.826Z,744.07
2022-08-03T02:02:31.722Z,744.49
2022-08-03T02:02:35.019Z,744.81
2022-08-03T02:03:34.811Z,744.93
2022-08-03T02:04:34.787Z,745.06
2022-08-03T02:05:34.756Z,745.08
2022-08-03T02:07:02.546Z,745.23
2022-08-03T02:07:34.870Z,745.30
2022-08-03T02:08:34.740Z,745.44
2022-08-03T02:09:34.727Z,745.60
2022-08-03T02:10:36.003Z,745.70
2022-08-03T02:11:34.719Z,745.85
2022-08-03T02:12:34.715Z,746.18
2022-08-03T02:13:34.675Z,746.30
2022-08-03T02:14:34.661Z,746.46
2022-08-03T02:15:34.665Z,746.61
2022-08-03T02:16:34.634Z,746.70
2022-08-03T02:17:39.263Z,746.67
2022-08-03T02:18:34.618Z,746.93
2022-08-03T02:19:35.842Z,747.07
2022-08-03T02:20:34.594Z,747.18
2022-08-03T02:21:56.721Z,747.24
2022-08-03T02:22:34.574Z,747.42
2022-08-03T02:23:34.562Z,747.70
2022-08-03T02:24:34.546Z,747.86
2022-08-03T02:25:34.566Z,748.09
2022-08-03T02:26:34.530Z,748.17
2022-08-03T02:27:34.524Z,748.18
2022-08-03T02:28:34.506Z,748.42
2022-08-03T02:29:40.091Z,748.54
2022-08-03T02:30:34.492Z,748.65
2022-08-03T02:31:34.483Z,748.76
2022-08-03T02:32:34.473Z,748.94
2022-08-03T02:33:34.451Z,749.13
2022-08-03T02:34:34.461Z,749.36
2022-08-03T02:35:34.431Z,749.49
2022-08-03T02:36:34.420Z,749.44
2022-08-03T02:37:34.413Z,749.46
2022-08-03T02:38:34.399Z,749.59
2022-08-03T02:39:34.398Z,749.66
2022-08-03T02:40:34.376Z,749.83
2022-08-03T02:41:34.399Z,750.03
2022-08-03T02:42:34.350Z,750.17
2022-08-03T02:44:05.748Z,750.52
2022-08-03T02:44:34.327Z,750.74
2022-08-03T02:45:34.323Z,751.11
2022-08-03T02:46:34.313Z,751.38
2022-08-03T02:48:43.281Z,751.82
2022-08-03T02:49:50.591Z,752.15
2022-08-03T02:50:44.246Z,752.42
2022-08-03T02:51:44.231Z,752.58
2022-08-03T02:52:44.218Z,753.04
2022-08-03T02:53:44.230Z,752.97
2022-08-03T02:54:44.202Z,753.10
2022-08-03T02:55:45.832Z,753.05
2022-08-03T02:56:44.187Z,753.06
2022-08-03T02:57:44.186Z,753.01
2022-08-03T02:58:44.184Z,753.22
2022-08-03T02:59:43.155Z,753.30
2022-08-03T03:00:44.242Z,753.57
2022-08-03T03:01:44.128Z,753.81
2022-08-03T03:02:44.686Z,754.02
2022-08-03T03:03:45.038Z,754.14
2022-08-03T03:05:50.610Z,754.20
2022-08-03T03:05:56.152Z,754.37
2022-08-03T03:06:44.063Z,754.61
2022-08-03T03:07:51.973Z,754.77
2022-08-03T03:08:44.046Z,755.05
2022-08-03T03:09:44.070Z,755.26
2022-08-03T03:10:44.056Z,755.55
2022-08-03T03:11:44.016Z,755.71
2022-08-03T03:12:44.007Z,755.81
2022-08-03T03:13:44.004Z,756.06
2022-08-03T03:14:43.979Z,756.25
2022-08-03T03:15:43.969Z,756.62
2022-08-03T03:16:43.959Z,756.81
2022-08-03T03:17:43.947Z,756.84
2022-08-03T03:18:43.959Z,756.82
2022-08-03T03:19:43.919Z,757.02
2022-08-03T03:20:43.914Z,757.23
2022-08-03T03:21:43.916Z,757.28
2022-08-03T03:22:45.323Z,757.57
2022-08-03T03:23:43.894Z,757.79
2022-08-03T03:24:43.870Z,757.84
2022-08-03T03:25:43.856Z,757.61
2022-08-03T03:26:43.849Z,757.75
2022-08-03T03:27:43.841Z,758.11
2022-08-03T03:28:43.852Z,758.43
2022-08-03T03:29:43.819Z,758.70
2022-08-03T03:30:43.805Z,758.84
2022-08-03T03:31:43.803Z,759.21
2022-08-03T03:32:43.801Z,758.98
2022-08-03T03:33:43.797Z,759.09
2022-08-03T03:34:44.245Z,759.18
2022-08-03T03:35:43.744Z,759.18
2022-08-03T03:36:43.739Z,759.18
2022-08-03T03:37:43.728Z,759.32
2022-08-03T03:38:43.723Z,759.45
2022-08-03T03:39:43.702Z,759.36
2022-08-03T03:40:43.708Z,759.23
2022-08-03T03:41:43.688Z,758.89
2022-08-03T03:42:43.666Z,758.53
2022-08-03T03:43:43.670Z,758.27
2022-08-03T03:44:43.649Z,757.90
2022-08-03T03:45:43.634Z,757.99
2022-08-03T03:46:43.633Z,758.07
2022-08-03T03:47:43.636Z,757.84
2022-08-03T03:48:43.611Z,757.79
2022-08-03T03:49:43.623Z,757.25
2022-08-03T03:50:43.610Z,756.91
2022-08-03T03:51:43.576Z,756.59
2022-08-03T03:52:43.566Z,755.98
2022-08-03T03:53:43.566Z,755.85
2022-08-03T03:54:43.573Z,755.58
2022-08-03T03:56:01.657Z,755.59
2022-08-03T03:56:43.550Z,755.48
2022-08-03T03:57:43.505Z,755.26
2022-08-03T03:58:43.493Z,755.13
2022-08-03T03:59:43.484Z,755.03
2022-08-03T04:00:43.569Z,755.02
2022-08-03T04:01:43.468Z,754.92
2022-08-03T04:02:43.449Z,754.79
2022-08-03T04:03:43.461Z,754.67
2022-08-03T04:04:43.457Z,754.57
2022-08-03T04:05:45.978Z,754.50
2022-08-03T04:06:43.419Z,754.54
2022-08-03T04:07:43.402Z,754.42
2022-08-03T04:08:43.409Z,754.44
2022-08-03T04:09:43.368Z,754.25
2022-08-03T04:10:43.369Z,754.21
2022-08-03T04:11:43.385Z,754.21
2022-08-03T04:12:50.403Z,754.20
2022-08-03T04:13:43.331Z,754.20
2022-08-03T04:14:43.335Z,754.30
2022-08-03T04:15:43.312Z,754.25
2022-08-03T04:16:44.088Z,754.22
2022-08-03T04:17:44.254Z,754.36
2022-08-03T04:18:43.291Z,754.42
2022-08-03T04:19:43.259Z,754.47
2022-08-03T04:20:43.278Z,754.48
2022-08-03T04:21:43.253Z,754.59
2022-08-03T04:22:43.275Z,754.57
2022-08-03T04:23:43.217Z,754.47
2022-08-03T04:24:43.206Z,754.68
2022-08-03T04:25:43.216Z,754.70
2022-08-03T04:26:43.231Z,754.71
2022-08-03T04:27:43.175Z,754.81
2022-08-03T04:28:43.172Z,754.81
2022-08-03T04:29:48.152Z,754.74
2022-08-03T04:30:43.142Z,754.78
2022-08-03T04:31:43.125Z,754.82
2022-08-03T04:32:45.814Z,754.85
2022-08-03T04:33:43.124Z,754.66
2022-08-03T04:34:43.097Z,754.72
2022-08-03T04:36:01.070Z,754.68
2022-08-03T04:36:43.084Z,754.77
2022-08-03T04:37:43.063Z,754.89
2022-08-03T04:38:43.068Z,754.78
2022-08-03T04:39:43.048Z,754.78
2022-08-03T04:40:43.030Z,754.56
2022-08-03T04:42:06.981Z,754.35
2022-08-03T04:42:43.009Z,754.18
2022-08-03T04:43:43.000Z,754.19
2022-08-03T04:44:42.986Z,753.95
2022-08-03T04:45:42.973Z,753.85
2022-08-03T04:46:50.451Z,753.69
2022-08-03T04:47:42.959Z,753.47
2022-08-03T04:49:51.914Z,753.31
2022-08-03T04:50:52.895Z,752.96
2022-08-03T04:51:52.874Z,752.89
2022-08-03T04:52:52.882Z,752.72
2022-08-03T04:53:52.910Z,752.65
2022-08-03T04:54:52.839Z,752.60
2022-08-03T04:55:52.825Z,752.45
2022-08-03T04:56:52.831Z,752.31
2022-08-03T04:57:52.830Z,752.35
2022-08-03T04:58:52.809Z,752.14
2022-08-03T04:59:56.638Z,752.00
2022-08-03T05:00:52.770Z,751.74
2022-08-03T05:01:52.813Z,751.09
2022-08-03T05:02:52.777Z,750.97
2022-08-03T05:03:52.753Z,750.66
2022-08-03T05:04:52.746Z,750.34
2022-08-03T05:05:52.861Z,750.20
2022-08-03T05:06:54.968Z,749.90
2022-08-03T05:07:53.106Z,749.66
2022-08-03T05:08:52.684Z,749.46
2022-08-03T05:10:01.729Z,749.17
2022-08-03T05:10:52.672Z,748.83
2022-08-03T05:11:52.723Z,748.33
2022-08-03T05:12:52.667Z,747.55
2022-08-03T05:13:52.648Z,746.52
2022-08-03T05:14:52.630Z,745.46
2022-08-03T05:15:52.625Z,744.35
2022-08-03T05:16:52.611Z,743.35
2022-08-03T05:17:52.589Z,742.18
2022-08-03T05:18:52.582Z,741.24
2022-08-03T05:19:52.591Z,740.23
2022-08-03T05:20:52.552Z,738.94
2022-08-03T05:21:53.123Z,737.90
2022-08-03T05:22:52.535Z,737.04
2022-08-03T05:23:52.526Z,736.26
2022-08-03T05:24:52.524Z,735.21
2022-08-03T05:25:52.519Z,734.39
2022-08-03T05:26:52.491Z,734.20
2022-08-03T05:27:52.479Z,734.44
2022-08-03T05:28:52.479Z,734.59
2022-08-03T05:29:52.454Z,734.63
2022-08-03T05:30:52.445Z,734.53
2022-08-03T05:31:52.464Z,734.00
2022-08-03T05:32:52.422Z,733.07
2022-08-03T05:33:52.431Z,732.25
2022-08-03T05:34:52.416Z,731.48
2022-08-03T05:35:57.860Z,730.90
2022-08-03T05:36:52.391Z,730.98
2022-08-03T05:37:54.699Z,730.64
2022-08-03T05:38:52.364Z,730.15
2022-08-03T05:39:52.347Z,729.95
2022-08-03T05:40:56.783Z,729.31
2022-08-03T05:41:52.324Z,728.65
2022-08-03T05:42:52.321Z,727.82
2022-08-03T05:43:52.315Z,727.35
2022-08-03T05:44:52.290Z,726.45
2022-08-03T05:46:11.767Z,725.79
2022-08-03T05:46:52.294Z,725.70
2022-08-03T05:47:52.282Z,724.93
2022-08-03T05:48:52.511Z,724.39
2022-08-03T05:49:52.257Z,723.72
2022-08-03T05:50:52.234Z,723.36
2022-08-03T05:52:00.410Z,723.26
2022-08-03T05:52:52.204Z,723.46
2022-08-03T05:53:52.194Z,723.49
2022-08-03T05:54:57.408Z,722.45
2022-08-03T05:55:56.152Z,721.28
2022-08-03T05:56:52.193Z,720.55
2022-08-03T05:57:52.164Z,719.85
2022-08-03T05:58:52.154Z,719.06
2022-08-03T05:59:55.760Z,719.19
2022-08-03T06:00:52.129Z,719.33
2022-08-03T06:01:52.252Z,719.28
2022-08-03T06:02:52.104Z,718.93
2022-08-03T06:03:52.152Z,718.69
2022-08-03T06:04:52.898Z,718.44
2022-08-03T06:05:55.559Z,717.92
2022-08-03T06:06:52.062Z,717.72
2022-08-03T06:07:52.047Z,717.49
2022-08-03T06:08:52.056Z,717.72
2022-08-03T06:10:35.601Z,717.10
2022-08-03T06:10:52.024Z,716.58
2022-08-03T06:11:52.024Z,716.55
2022-08-03T06:12:51.995Z,715.72
2022-08-03T06:13:52.000Z,715.27
2022-08-03T06:14:51.991Z,715.05
2022-08-03T06:15:51.976Z,715.50
2022-08-03T06:16:51.962Z,715.70
2022-08-03T06:17:51.938Z,715.84
2022-08-03T06:18:51.924Z,715.73
2022-08-03T06:19:51.915Z,715.51
2022-08-03T06:20:52.338Z,714.92
2022-08-03T06:21:51.928Z,714.84
2022-08-03T06:23:00.473Z,714.27
2022-08-03T06:23:54.553Z,714.53
2022-08-03T06:24:53.595Z,714.56
2022-08-03T06:25:51.851Z,713.87
2022-08-03T06:26:51.857Z,713.17
2022-08-03T06:27:51.844Z,712.31
2022-08-03T06:28:54.133Z,711.81
2022-08-03T06:29:51.811Z,711.87
2022-08-03T06:30:51.813Z,711.97
2022-08-03T06:31:51.787Z,711.71
2022-08-03T06:32:52.530Z,711.26
2022-08-03T06:34:34.182Z,710.69
2022-08-03T06:34:51.759Z,709.90
2022-08-03T06:35:51.757Z,709.16
2022-08-03T06:36:52.244Z,709.56
2022-08-03T06:37:51.724Z,709.31
2022-08-03T06:38:51.737Z,708.21
2022-08-03T06:39:51.707Z,707.22
2022-08-03T06:40:51.692Z,706.47
2022-08-03T06:41:51.691Z,705.83
2022-08-03T06:42:51.665Z,706.57
2022-08-03T06:44:03.363Z,706.97
2022-08-03T06:44:51.664Z,707.66
2022-08-03T06:45:51.638Z,707.34
2022-08-03T06:46:51.627Z,707.04
2022-08-03T06:47:51.617Z,706.07
2022-08-03T06:48:51.601Z,705.18
2022-08-03T06:51:00.567Z,704.29
2022-08-03T06:52:03.742Z,703.47
2022-08-03T06:53:01.526Z,703.58
2022-08-03T06:54:01.516Z,704.15
2022-08-03T06:55:01.533Z,704.94
2022-08-03T06:56:01.491Z,704.40
2022-08-03T06:57:01.513Z,704.07
2022-08-03T06:58:03.478Z,704.42
2022-08-03T06:59:01.457Z,703.91
2022-08-03T07:00:09.402Z,703.50
2022-08-03T07:01:01.540Z,702.79
2022-08-03T07:02:01.425Z,702.93
2022-08-03T07:03:01.413Z,702.79
2022-08-03T07:04:01.400Z,702.13
2022-08-03T07:05:01.387Z,702.29
2022-08-03T07:06:01.389Z,702.33
2022-08-03T07:07:01.388Z,701.69
2022-08-03T07:08:01.376Z,701.38
2022-08-03T07:09:01.346Z,701.03
2022-08-03T07:10:02.219Z,700.68
2022-08-03T07:11:01.341Z,699.81
2022-08-03T07:12:01.325Z,698.86
2022-08-03T07:13:01.323Z,697.38
2022-08-03T07:14:01.305Z,696.66
2022-08-03T07:15:02.975Z,695.99
2022-08-03T07:16:01.270Z,696.01
2022-08-03T07:17:01.258Z,696.74
2022-08-03T07:18:01.291Z,696.30
2022-08-03T07:19:01.240Z,695.59
2022-08-03T07:20:01.259Z,694.87
2022-08-03T07:21:01.242Z,694.10
2022-08-03T07:22:02.402Z,693.51
2022-08-03T07:23:01.210Z,693.30
2022-08-03T07:24:01.189Z,693.24
2022-08-03T07:25:01.170Z,693.15
2022-08-03T07:26:01.163Z,693.34
2022-08-03T07:27:01.164Z,694.32
2022-08-03T07:28:01.144Z,694.62
2022-08-03T07:29:01.135Z,693.64
2022-08-03T07:30:01.121Z,692.83
2022-08-03T07:31:01.137Z,692.89
2022-08-03T07:32:01.099Z,692.53
2022-08-03T07:33:01.105Z,692.49
2022-08-03T07:34:01.096Z,692.37
2022-08-03T07:35:01.784Z,691.26
2022-08-03T07:36:01.053Z,691.43
2022-08-03T07:37:01.039Z,690.45
2022-08-03T07:38:01.031Z,690.12
2022-08-03T07:39:01.015Z,690.51
2022-08-03T07:40:01.035Z,689.94
2022-08-03T07:41:00.996Z,689.34
2022-08-03T07:42:00.999Z,688.34
2022-08-03T07:43:00.977Z,687.27
2022-08-03T07:44:00.963Z,686.90
2022-08-03T07:45:00.965Z,687.24
2022-08-03T07:46:00.964Z,686.73
2022-08-03T07:47:03.222Z,686.69
2022-08-03T07:48:00.948Z,687.13
2022-08-03T07:49:00.928Z,686.77
2022-08-03T07:50:00.897Z,686.18
2022-08-03T07:51:00.896Z,686.40
2022-08-03T07:52:01.023Z,686.21
2022-08-03T07:53:00.903Z,686.09
2022-08-03T07:54:00.882Z,686.78
2022-08-03T07:55:01.063Z,686.00
2022-08-03T07:56:00.839Z,684.65
2022-08-03T07:57:00.843Z,684.11
2022-08-03T07:58:00.834Z,683.74
2022-08-03T07:59:00.829Z,683.18
2022-08-03T08:00:02.208Z,683.11
2022-08-03T08:01:00.813Z,683.06
2022-08-03T08:02:00.782Z,682.43
2022-08-03T08:03:00.771Z,682.21
2022-08-03T08:04:00.764Z,681.18
2022-08-03T08:05:05.303Z,680.72
2022-08-03T08:06:00.759Z,681.34
2022-08-03T08:07:00.729Z,681.93
2022-08-03T08:08:00.724Z,682.49
2022-08-03T08:09:00.694Z,683.47
2022-08-03T08:10:00.687Z,683.38
2022-08-03T08:11:00.716Z,684.43
2022-08-03T08:12:00.665Z,683.79
2022-08-03T08:13:00.692Z,683.65
2022-08-03T08:14:00.652Z,682.81
2022-08-03T08:15:00.647Z,681.69
2022-08-03T08:16:00.642Z,681.93
2022-08-03T08:17:04.376Z,681.86
2022-08-03T08:18:00.622Z,682.63
2022-08-03T08:20:09.043Z,683.38
2022-08-03T08:21:10.045Z,682.72
2022-08-03T08:22:10.019Z,682.30
2022-08-03T08:38:51.749Z,677.48
2022-08-03T08:39:52.690Z,677.20
2022-08-03T08:40:52.680Z,677.19
2022-08-03T08:41:53.351Z,676.91
2022-08-03T08:42:58.402Z,676.11
2022-08-03T08:43:55.499Z,675.18
2022-08-03T08:44:52.632Z,674.00
2022-08-03T08:45:52.621Z,674.15
2022-08-03T08:46:52.624Z,673.48
2022-08-03T08:47:55.694Z,673.27
2022-08-03T08:48:52.850Z,673.08
2022-08-03T08:50:08.874Z,673.04
2022-08-03T08:50:52.591Z,674.20
2022-08-03T08:52:00.827Z,674.35
2022-08-03T08:52:52.554Z,674.98
2022-08-03T08:53:52.549Z,673.99
2022-08-03T08:54:52.526Z,672.58
2022-08-03T08:55:58.192Z,672.26
2022-08-03T08:56:52.522Z,673.18
2022-08-03T08:57:52.488Z,674.76
2022-08-03T08:58:52.505Z,674.06
2022-08-03T08:59:57.000Z,673.19
2022-08-03T09:00:52.556Z,673.07
2022-08-03T09:01:53.457Z,671.76
2022-08-03T09:02:52.445Z,670.77
2022-08-03T09:03:52.460Z,669.71
2022-08-03T09:04:52.412Z,669.78
2022-08-03T09:05:56.423Z,669.90
2022-08-03T09:07:17.591Z,669.22
2022-08-03T09:07:52.414Z,668.96
2022-08-03T09:08:52.374Z,669.05
2022-08-03T09:10:12.013Z,669.45
2022-08-03T09:10:52.353Z,670.29
2022-08-03T09:12:01.127Z,669.80
2022-08-03T09:12:52.344Z,670.77
2022-08-03T09:13:52.337Z,670.16
2022-08-03T09:15:07.817Z,669.63
2022-08-03T09:15:59.827Z,670.56
2022-08-03T09:16:52.290Z,670.86
2022-08-03T09:17:52.278Z,670.44
2022-08-03T09:18:52.306Z,670.33
2022-08-03T09:20:03.575Z,670.28
2022-08-03T09:20:52.252Z,670.24
2022-08-03T09:21:52.236Z,669.52
2022-08-03T09:22:52.228Z,668.66
2022-08-03T09:24:02.344Z,668.00
2022-08-03T09:25:14.733Z,668.25
2022-08-03T09:25:52.218Z,668.74
2022-08-03T09:26:53.972Z,667.92
2022-08-03T09:27:52.171Z,667.23
2022-08-03T09:29:00.661Z,667.36
2022-08-03T09:29:52.177Z,666.94
2022-08-03T09:30:52.140Z,666.82
2022-08-03T09:31:52.160Z,667.23
2022-08-03T09:32:52.141Z,667.94
2022-08-03T09:33:52.138Z,667.40
2022-08-03T09:34:55.327Z,667.14
2022-08-03T09:35:53.968Z,666.53
2022-08-03T09:36:52.081Z,666.52
2022-08-03T09:38:08.501Z,666.55
2022-08-03T09:38:52.061Z,665.99
2022-08-03T09:39:52.044Z,665.43
2022-08-03T09:40:55.927Z,664.83
2022-08-03T09:41:52.037Z,664.77
2022-08-03T09:42:52.015Z,664.14
2022-08-03T09:43:52.002Z,663.58
2022-08-03T09:44:52.032Z,662.99
2022-08-03T09:45:51.982Z,664.09
2022-08-03T09:46:51.996Z,664.32
2022-08-03T09:47:51.987Z,663.77
2022-08-03T09:48:51.969Z,662.99
2022-08-03T09:49:51.963Z,662.65
2022-08-03T09:50:57.071Z,662.33
2022-08-03T09:52:32.486Z,661.70
2022-08-03T09:52:52.912Z,662.59
2022-08-03T09:53:59.324Z,662.54
2022-08-03T09:54:51.905Z,662.17
2022-08-03T09:56:35.002Z,662.00
2022-08-03T09:56:51.889Z,662.36
2022-08-03T09:57:51.892Z,663.07
2022-08-03T09:58:51.844Z,662.99
2022-08-03T09:59:54.982Z,662.30
2022-08-03T10:00:51.840Z,661.55
2022-08-03T10:01:51.827Z,661.40
2022-08-03T10:02:51.815Z,661.26
2022-08-03T10:04:04.431Z,661.06
2022-08-03T10:04:51.795Z,660.71
2022-08-03T10:05:56.036Z,660.51
2022-08-03T10:06:51.763Z,661.60
2022-08-03T10:07:51.776Z,663.32
2022-08-03T10:08:51.750Z,665.25
2022-08-03T10:09:51.772Z,664.77
2022-08-03T10:10:51.726Z,665.03
2022-08-03T10:11:51.708Z,664.09
2022-08-03T10:12:51.710Z,663.72
2022-08-03T10:13:51.696Z,663.16
2022-08-03T10:14:51.692Z,663.24
2022-08-03T10:16:21.762Z,663.51
2022-08-03T10:16:51.665Z,664.00
2022-08-03T10:17:51.675Z,663.48
2022-08-03T10:18:51.641Z,662.92
2022-08-03T10:19:52.409Z,663.41
2022-08-03T10:20:51.650Z,664.70
2022-08-03T10:21:51.628Z,664.16
2022-08-03T10:22:51.595Z,663.11
2022-08-03T10:23:51.613Z,662.12
2022-08-03T10:24:51.570Z,661.78
2022-08-03T10:25:51.579Z,661.84
2022-08-03T10:26:51.566Z,661.86
2022-08-03T10:27:51.559Z,661.84
2022-08-03T10:28:51.528Z,663.16
2022-08-03T10:29:51.536Z,664.13
2022-08-03T10:30:51.515Z,664.10
2022-08-03T10:31:57.874Z,662.86
2022-08-03T10:32:51.518Z,662.35
2022-08-03T10:33:53.104Z,662.03
2022-08-03T10:34:51.472Z,662.03
2022-08-03T10:35:51.464Z,661.73
2022-08-03T10:36:51.458Z,662.28
2022-08-03T10:37:56.471Z,663.17
2022-08-03T10:40:00.445Z,664.12
2022-08-03T10:41:01.384Z,663.65
2022-08-03T10:42:02.835Z,663.78
2022-08-03T10:43:01.359Z,663.07
2022-08-03T10:44:01.371Z,663.19
2022-08-03T10:45:01.343Z,663.44
2022-08-03T10:46:01.356Z,664.06
2022-08-03T10:47:01.331Z,663.15
2022-08-03T10:48:01.311Z,662.26
2022-08-03T10:49:01.488Z,661.43
2022-08-03T10:50:01.301Z,661.90
2022-08-03T10:51:01.289Z,661.31
2022-08-03T10:52:01.264Z,660.57
2022-08-03T10:53:01.955Z,659.93
2022-08-03T10:54:01.945Z,659.70
2022-08-03T10:55:03.469Z,658.87
2022-08-03T10:56:01.646Z,658.35
2022-08-03T10:57:14.169Z,659.18
2022-08-03T10:58:01.215Z,659.04
2022-08-03T10:59:03.932Z,659.17
2022-08-03T11:00:01.190Z,661.95
2022-08-03T11:01:01.257Z,662.25
2022-08-03T11:02:01.409Z,661.94
2022-08-03T11:03:01.155Z,661.06
2022-08-03T11:04:02.406Z,660.84
2022-08-03T11:05:01.139Z,660.98
2022-08-03T11:06:01.153Z,660.70
2022-08-03T11:07:01.125Z,660.62
2022-08-03T11:08:01.130Z,660.20
2022-08-03T11:09:01.098Z,660.56
2022-08-03T11:10:01.085Z,659.83
2022-08-03T11:11:01.094Z,659.60
2022-08-03T11:12:01.077Z,659.58
2022-08-03T11:13:01.085Z,660.16
2022-08-03T11:14:01.064Z,660.04
2022-08-03T11:15:01.045Z,659.80
2022-08-03T11:16:02.222Z,658.92
2022-08-03T11:17:01.014Z,659.05
2022-08-03T11:18:01.056Z,659.39
2022-08-03T11:19:00.995Z,660.97
2022-08-03T11:20:00.987Z,661.30
2022-08-03T11:21:00.983Z,661.82
2022-08-03T11:22:00.961Z,662.02
2022-08-03T11:23:00.967Z,661.59
2022-08-03T11:24:02.434Z,661.63
2022-08-03T11:25:00.937Z,661.32
2022-08-03T11:26:00.920Z,661.64
2022-08-03T11:27:05.563Z,662.70
2022-08-03T11:28:00.921Z,663.24
2022-08-03T11:29:00.897Z,663.19
2022-08-03T11:30:00.886Z,663.15
2022-08-03T11:31:00.901Z,663.10
2022-08-03T11:32:00.869Z,663.11
2022-08-03T11:33:00.865Z,662.95
2022-08-03T11:34:00.838Z,662.30
2022-08-03T11:35:00.848Z,662.00
2022-08-03T11:36:00.842Z,662.25
2022-08-03T11:37:00.834Z,661.61
2022-08-03T11:38:03.311Z,662.01
2022-08-03T11:39:00.796Z,661.54
2022-08-03T11:40:02.740Z,661.85
2022-08-03T11:41:00.779Z,661.95
2022-08-03T11:42:00.783Z,661.19
2022-08-03T11:43:00.751Z,660.28
2022-08-03T11:44:00.744Z,659.94
2022-08-03T11:45:00.732Z,659.70
2022-08-03T11:46:00.733Z,661.41
2022-08-03T11:47:00.709Z,660.91
2022-08-03T11:48:00.718Z,660.78
2022-08-03T11:49:00.752Z,660.45
2022-08-03T11:50:00.724Z,660.32
2022-08-03T11:51:00.672Z,660.35
2022-08-03T11:52:00.665Z,659.59
2022-08-03T11:53:00.684Z,659.63
2022-08-03T11:54:00.662Z,659.42
2022-08-03T11:55:00.628Z,659.10
2022-08-03T11:56:00.637Z,658.28
2022-08-03T11:57:00.608Z,657.43
2022-08-03T11:59:17.091Z,658.76
2022-08-03T11:59:19.258Z,660.28
2022-08-03T12:00:00.625Z,661.31
2022-08-03T12:01:00.598Z,661.34
2022-08-03T12:02:00.584Z,660.84
2022-08-03T12:03:00.619Z,660.92
2022-08-03T12:04:00.556Z,660.94
2022-08-03T12:05:00.550Z,660.28
2022-08-03T12:06:00.556Z,661.09
2022-08-03T12:07:01.403Z,661.54
2022-08-03T12:08:04.123Z,661.24
2022-08-03T12:09:00.494Z,661.15
2022-08-03T12:10:00.478Z,661.03
2022-08-03T12:11:00.550Z,659.53
2022-08-03T12:12:01.333Z,659.65
2022-08-03T12:13:00.471Z,659.47
2022-08-03T12:14:48.020Z,660.11
2022-08-03T12:15:00.441Z,660.88
2022-08-03T12:16:00.431Z,660.71
2022-08-03T12:17:00.425Z,660.52
2022-08-03T12:18:00.396Z,659.83
2022-08-03T12:19:00.400Z,659.05
2022-08-03T12:20:00.390Z,658.65
2022-08-03T12:21:00.414Z,658.48
2022-08-03T12:22:00.357Z,659.25
2022-08-03T12:23:00.369Z,659.55
2022-08-03T12:24:00.637Z,659.34
2022-08-03T12:25:00.354Z,659.54
2022-08-03T12:26:00.324Z,659.79
2022-08-03T12:27:00.381Z,659.43
2022-08-03T12:28:00.301Z,660.23
2022-08-03T12:29:00.285Z,660.04
2022-08-03T12:30:00.264Z,659.50
2022-08-03T12:31:00.255Z,659.08
2022-08-03T12:32:00.264Z,660.07
2022-08-03T12:33:00.236Z,660.07
2022-08-03T12:34:00.228Z,659.70
2022-08-03T12:35:00.581Z,658.85
2022-08-03T12:36:00.208Z,658.46
2022-08-03T12:37:00.212Z,658.72
2022-08-03T12:38:00.201Z,658.87
2022-08-03T12:39:00.180Z,659.37
2022-08-03T12:41:09.122Z,658.60
2022-08-03T12:42:10.139Z,657.45
2022-08-03T12:43:10.103Z,656.74
2022-08-03T12:44:10.112Z,657.30
2022-08-03T12:45:10.103Z,656.70
2022-08-03T12:46:10.082Z,657.52
2022-08-03T12:47:10.054Z,658.35
2022-08-03T12:48:10.060Z,658.25
2022-08-03T12:49:10.085Z,658.87
2022-08-03T12:50:10.046Z,659.44
2022-08-03T12:51:10.029Z,659.54
2022-08-03T12:52:10.015Z,659.51